sensor_id;sensor_type;location;lat;lon;timestamp;P1;durP1;ratioP1;P2;durP2;ratioP2
21991;SDS011;11160;51.576;0.194;2022-08-19T00:02:08;12.27;;;11.57;;
21991;SDS011;11160;51.576;0.194;2022-08-19T00:04:36;12.48;;;11.73;;
21991;SDS011;11160;51.576;0.194;2022-08-19T00:07:04;12.68;;;11.93;;
21991;SDS011;11160;51.576;0.194;2022-08-19T00:09:32;11.57;;;10.77;;
21991;SDS011;11160;51.576;0.194;2022-08-19T00:12:00;12.00;;;11.32;;
21991;SDS011;11160;51.576;0.194;2022-08-19T00:14:28;9.82;;;9.27;;
21991;SDS011;11160;51.576;0.194;2022-08-19T00:19:26;9.77;;;9.02;;
21991;SDS011;11160;51.576;0.194;2022-08-19T00:21:53;8.90;;;8.38;;
21991;SDS011;11160;51.576;0.194;2022-08-19T00:24:24;11.02;;;10.38;;
21991;SDS011;11160;51.576;0.194;2022-08-19T00:26:51;12.13;;;11.43;;
21991;SDS011;11160;51.576;0.194;2022-08-19T00:29:19;10.07;;;9.45;;
21991;SDS011;11160;51.576;0.194;2022-08-19T00:31:47;10.65;;;9.98;;
21991;SDS011;11160;51.576;0.194;2022-08-19T00:34:16;10.55;;;9.95;;
21991;SDS011;11160;51.576;0.194;2022-08-19T00:36:44;10.52;;;9.93;;
21991;SDS011;11160;51.576;0.194;2022-08-19T00:39:13;9.82;;;9.27;;
21991;SDS011;11160;51.576;0.194;2022-08-19T00:41:45;11.38;;;10.73;;
21991;SDS011;11160;51.576;0.194;2022-08-19T00:44:19;9.80;;;9.20;;
21991;SDS011;11160;51.576;0.194;2022-08-19T00:46:53;9.60;;;9.00;;
21991;SDS011;11160;51.576;0.194;2022-08-19T00:49:32;9.93;;;9.32;;
21991;SDS011;11160;51.576;0.194;2022-08-19T00:52:08;10.07;;;9.45;;
21991;SDS011;11160;51.576;0.194;2022-08-19T00:54:38;10.93;;;10.32;;
21991;SDS011;11160;51.576;0.194;2022-08-19T00:57:08;8.60;;;8.13;;
21991;SDS011;11160;51.576;0.194;2022-08-19T00:59:42;9.70;;;9.10;;
21991;SDS011;11160;51.576;0.194;2022-08-19T01:02:28;10.95;;;10.35;;
21991;SDS011;11160;51.576;0.194;2022-08-19T01:04:56;10.02;;;9.43;;
21991;SDS011;11160;51.576;0.194;2022-08-19T01:07:25;9.40;;;8.90;;
21991;SDS011;11160;51.576;0.194;2022-08-19T01:09:52;9.32;;;8.52;;
21991;SDS011;11160;51.576;0.194;2022-08-19T01:12:20;9.15;;;8.65;;
21991;SDS011;11160;51.576;0.194;2022-08-19T01:14:47;8.90;;;8.40;;
21991;SDS011;11160;51.576;0.194;2022-08-19T01:17:16;8.60;;;8.13;;
21991;SDS011;11160;51.576;0.194;2022-08-19T01:19:45;9.68;;;9.15;;
21991;SDS011;11160;51.576;0.194;2022-08-19T01:22:16;8.10;;;7.63;;
21991;SDS011;11160;51.576;0.194;2022-08-19T01:24:59;9.18;;;8.65;;
21991;SDS011;11160;51.576;0.194;2022-08-19T01:27:26;9.80;;;9.25;;
21991;SDS011;11160;51.576;0.194;2022-08-19T01:30:09;9.93;;;9.38;;
21991;SDS011;11160;51.576;0.194;2022-08-19T01:32:39;8.48;;;7.97;;
21991;SDS011;11160;51.576;0.194;2022-08-19T01:35:07;9.60;;;8.90;;
21991;SDS011;11160;51.576;0.194;2022-08-19T01:40:24;8.70;;;8.20;;
21991;SDS011;11160;51.576;0.194;2022-08-19T01:42:55;8.82;;;8.27;;
21991;SDS011;11160;51.576;0.194;2022-08-19T01:45:24;7.88;;;7.43;;
21991;SDS011;11160;51.576;0.194;2022-08-19T01:47:53;7.97;;;7.47;;
21991;SDS011;11160;51.576;0.194;2022-08-19T01:50:28;7.95;;;7.45;;
21991;SDS011;11160;51.576;0.194;2022-08-19T01:52:57;8.38;;;7.88;;
21991;SDS011;11160;51.576;0.194;2022-08-19T01:55:33;8.50;;;8.02;;
21991;SDS011;11160;51.576;0.194;2022-08-19T01:58:08;9.38;;;8.88;;
21991;SDS011;11160;51.576;0.194;2022-08-19T02:00:47;6.78;;;6.38;;
21991;SDS011;11160;51.576;0.194;2022-08-19T02:03:14;8.00;;;7.55;;
21991;SDS011;11160;51.576;0.194;2022-08-19T02:05:42;8.00;;;7.50;;
21991;SDS011;11160;51.576;0.194;2022-08-19T02:08:11;6.90;;;6.40;;
21991;SDS011;11160;51.576;0.194;2022-08-19T02:10:42;7.55;;;7.13;;
21991;SDS011;11160;51.576;0.194;2022-08-19T02:13:12;7.45;;;7.03;;
21991;SDS011;11160;51.576;0.194;2022-08-19T02:15:39;7.60;;;7.22;;
21991;SDS011;11160;51.576;0.194;2022-08-19T02:18:07;7.82;;;7.32;;
21991;SDS011;11160;51.576;0.194;2022-08-19T02:20:35;7.25;;;6.78;;
21991;SDS011;11160;51.576;0.194;2022-08-19T02:23:03;7.18;;;6.72;;
21991;SDS011;11160;51.576;0.194;2022-08-19T02:25:39;6.70;;;6.30;;
21991;SDS011;11160;51.576;0.194;2022-08-19T02:28:06;6.82;;;6.43;;
21991;SDS011;11160;51.576;0.194;2022-08-19T02:30:33;6.57;;;6.18;;
21991;SDS011;11160;51.576;0.194;2022-08-19T02:33:00;6.45;;;6.05;;
21991;SDS011;11160;51.576;0.194;2022-08-19T02:35:27;6.88;;;6.50;;
21991;SDS011;11160;51.576;0.194;2022-08-19T02:37:55;6.85;;;6.45;;
21991;SDS011;11160;51.576;0.194;2022-08-19T02:40:47;6.72;;;6.30;;
21991;SDS011;11160;51.576;0.194;2022-08-19T02:43:20;6.97;;;6.47;;
21991;SDS011;11160;51.576;0.194;2022-08-19T02:45:49;7.30;;;6.90;;
21991;SDS011;11160;51.576;0.194;2022-08-19T02:48:21;6.72;;;6.38;;
21991;SDS011;11160;51.576;0.194;2022-08-19T02:50:51;6.50;;;6.10;;
21991;SDS011;11160;51.576;0.194;2022-08-19T02:53:25;6.82;;;6.43;;
21991;SDS011;11160;51.576;0.194;2022-08-19T02:55:54;6.55;;;6.10;;
21991;SDS011;11160;51.576;0.194;2022-08-19T02:58:22;6.13;;;5.72;;
21991;SDS011;11160;51.576;0.194;2022-08-19T03:00:53;5.97;;;5.47;;
21991;SDS011;11160;51.576;0.194;2022-08-19T03:03:21;6.45;;;6.10;;
21991;SDS011;11160;51.576;0.194;2022-08-19T03:05:49;6.82;;;6.43;;
21991;SDS011;11160;51.576;0.194;2022-08-19T03:08:23;7.38;;;6.93;;
21991;SDS011;11160;51.576;0.194;2022-08-19T03:10:52;7.03;;;6.63;;
21991;SDS011;11160;51.576;0.194;2022-08-19T03:13:19;6.55;;;6.18;;
21991;SDS011;11160;51.576;0.194;2022-08-19T03:15:47;6.53;;;6.07;;
21991;SDS011;11160;51.576;0.194;2022-08-19T03:18:14;5.78;;;5.47;;
21991;SDS011;11160;51.576;0.194;2022-08-19T03:20:50;6.18;;;5.85;;
21991;SDS011;11160;51.576;0.194;2022-08-19T03:23:21;7.10;;;6.70;;
21991;SDS011;11160;51.576;0.194;2022-08-19T03:25:50;6.78;;;6.38;;
21991;SDS011;11160;51.576;0.194;2022-08-19T03:28:40;5.77;;;5.40;;
21991;SDS011;11160;51.576;0.194;2022-08-19T03:31:15;6.18;;;5.85;;
21991;SDS011;11160;51.576;0.194;2022-08-19T03:34:03;5.63;;;5.32;;
21991;SDS011;11160;51.576;0.194;2022-08-19T03:36:33;5.97;;;5.57;;
21991;SDS011;11160;51.576;0.194;2022-08-19T03:39:00;6.18;;;5.85;;
21991;SDS011;11160;51.576;0.194;2022-08-19T03:41:29;5.93;;;5.57;;
21991;SDS011;11160;51.576;0.194;2022-08-19T03:44:10;5.95;;;5.57;;
21991;SDS011;11160;51.576;0.194;2022-08-19T03:46:43;6.00;;;5.60;;
21991;SDS011;11160;51.576;0.194;2022-08-19T03:49:11;5.70;;;5.30;;
21991;SDS011;11160;51.576;0.194;2022-08-19T03:51:40;5.75;;;5.45;;
21991;SDS011;11160;51.576;0.194;2022-08-19T03:54:09;6.05;;;5.75;;
21991;SDS011;11160;51.576;0.194;2022-08-19T03:56:38;5.70;;;5.30;;
21991;SDS011;11160;51.576;0.194;2022-08-19T03:59:08;6.38;;;5.97;;
21991;SDS011;11160;51.576;0.194;2022-08-19T04:01:37;6.40;;;6.00;;
21991;SDS011;11160;51.576;0.194;2022-08-19T04:04:04;5.95;;;5.63;;
21991;SDS011;11160;51.576;0.194;2022-08-19T04:06:33;5.57;;;5.28;;
21991;SDS011;11160;51.576;0.194;2022-08-19T04:09:05;6.03;;;5.70;;
21991;SDS011;11160;51.576;0.194;2022-08-19T04:11:36;5.90;;;5.60;;
21991;SDS011;11160;51.576;0.194;2022-08-19T04:14:11;5.70;;;5.40;;
21991;SDS011;11160;51.576;0.194;2022-08-19T04:16:42;6.15;;;5.85;;
21991;SDS011;11160;51.576;0.194;2022-08-19T04:19:12;6.18;;;5.80;;
21991;SDS011;11160;51.576;0.194;2022-08-19T04:21:42;5.70;;;5.40;;
21991;SDS011;11160;51.576;0.194;2022-08-19T04:24:12;5.70;;;5.38;;
21991;SDS011;11160;51.576;0.194;2022-08-19T04:26:40;5.80;;;5.40;;
21991;SDS011;11160;51.576;0.194;2022-08-19T04:29:09;5.55;;;5.25;;
21991;SDS011;11160;51.576;0.194;2022-08-19T04:31:42;5.63;;;5.32;;
21991;SDS011;11160;51.576;0.194;2022-08-19T04:34:12;5.50;;;5.20;;
21991;SDS011;11160;51.576;0.194;2022-08-19T04:36:41;5.90;;;5.60;;
21991;SDS011;11160;51.576;0.194;2022-08-19T04:39:14;6.10;;;5.70;;
21991;SDS011;11160;51.576;0.194;2022-08-19T04:41:43;5.68;;;5.38;;
21991;SDS011;11160;51.576;0.194;2022-08-19T04:44:34;5.20;;;4.90;;
21991;SDS011;11160;51.576;0.194;2022-08-19T04:47:10;5.65;;;5.35;;
21991;SDS011;11160;51.576;0.194;2022-08-19T04:49:37;6.10;;;5.80;;
21991;SDS011;11160;51.576;0.194;2022-08-19T04:52:04;6.18;;;5.88;;
21991;SDS011;11160;51.576;0.194;2022-08-19T04:54:31;5.78;;;5.47;;
21991;SDS011;11160;51.576;0.194;2022-08-19T04:57:05;6.05;;;5.75;;
21991;SDS011;11160;51.576;0.194;2022-08-19T04:59:36;5.53;;;5.22;;
21991;SDS011;11160;51.576;0.194;2022-08-19T05:02:06;6.20;;;5.85;;
21991;SDS011;11160;51.576;0.194;2022-08-19T05:04:34;6.27;;;5.97;;
21991;SDS011;11160;51.576;0.194;2022-08-19T05:07:06;6.55;;;6.20;;
21991;SDS011;11160;51.576;0.194;2022-08-19T05:09:34;6.65;;;6.25;;
21991;SDS011;11160;51.576;0.194;2022-08-19T05:12:21;6.32;;;5.93;;
21991;SDS011;11160;51.576;0.194;2022-08-19T05:14:54;5.65;;;5.35;;
21991;SDS011;11160;51.576;0.194;2022-08-19T05:17:23;6.75;;;6.43;;
21991;SDS011;11160;51.576;0.194;2022-08-19T05:19:55;5.82;;;5.53;;
21991;SDS011;11160;51.576;0.194;2022-08-19T05:22:42;5.95;;;5.65;;
21991;SDS011;11160;51.576;0.194;2022-08-19T05:25:12;6.47;;;6.10;;
21991;SDS011;11160;51.576;0.194;2022-08-19T05:27:41;6.35;;;6.05;;
21991;SDS011;11160;51.576;0.194;2022-08-19T05:30:09;6.85;;;6.47;;
21991;SDS011;11160;51.576;0.194;2022-08-19T05:32:37;6.32;;;6.03;;
21991;SDS011;11160;51.576;0.194;2022-08-19T05:35:05;6.85;;;6.47;;
21991;SDS011;11160;51.576;0.194;2022-08-19T05:37:33;6.30;;;5.90;;
21991;SDS011;11160;51.576;0.194;2022-08-19T05:40:00;6.50;;;6.20;;
21991;SDS011;11160;51.576;0.194;2022-08-19T05:42:27;6.55;;;6.22;;
21991;SDS011;11160;51.576;0.194;2022-08-19T05:44:54;6.72;;;6.40;;
21991;SDS011;11160;51.576;0.194;2022-08-19T05:47:22;6.78;;;6.38;;
21991;SDS011;11160;51.576;0.194;2022-08-19T05:49:49;6.88;;;6.47;;
21991;SDS011;11160;51.576;0.194;2022-08-19T05:52:17;6.85;;;6.45;;
21991;SDS011;11160;51.576;0.194;2022-08-19T05:54:51;7.38;;;6.97;;
21991;SDS011;11160;51.576;0.194;2022-08-19T05:57:22;7.25;;;6.85;;
21991;SDS011;11160;51.576;0.194;2022-08-19T05:59:49;7.13;;;6.72;;
21991;SDS011;11160;51.576;0.194;2022-08-19T06:02:23;7.30;;;6.90;;
21991;SDS011;11160;51.576;0.194;2022-08-19T06:04:51;7.55;;;7.15;;
21991;SDS011;11160;51.576;0.194;2022-08-19T06:07:18;7.80;;;7.40;;
21991;SDS011;11160;51.576;0.194;2022-08-19T06:09:45;7.55;;;7.15;;
21991;SDS011;11160;51.576;0.194;2022-08-19T06:14:57;4.78;;;4.53;;
21991;SDS011;11160;51.576;0.194;2022-08-19T06:17:26;5.95;;;5.65;;
21991;SDS011;11160;51.576;0.194;2022-08-19T06:19:55;6.75;;;6.43;;
21991;SDS011;11160;51.576;0.194;2022-08-19T06:22:22;7.43;;;7.03;;
21991;SDS011;11160;51.576;0.194;2022-08-19T06:24:50;7.03;;;6.70;;
21991;SDS011;11160;51.576;0.194;2022-08-19T06:27:19;7.47;;;7.07;;
21991;SDS011;11160;51.576;0.194;2022-08-19T06:29:47;7.10;;;6.70;;
21991;SDS011;11160;51.576;0.194;2022-08-19T06:32:15;7.28;;;6.88;;
21991;SDS011;11160;51.576;0.194;2022-08-19T06:34:43;6.32;;;6.03;;
21991;SDS011;11160;51.576;0.194;2022-08-19T06:37:10;6.78;;;6.40;;
21991;SDS011;11160;51.576;0.194;2022-08-19T06:39:40;6.97;;;6.57;;
21991;SDS011;11160;51.576;0.194;2022-08-19T06:42:09;6.13;;;5.82;;
21991;SDS011;11160;51.576;0.194;2022-08-19T06:44:40;7.50;;;7.10;;
21991;SDS011;11160;51.576;0.194;2022-08-19T06:47:18;7.00;;;6.68;;
21991;SDS011;11160;51.576;0.194;2022-08-19T06:49:57;6.80;;;6.45;;
21991;SDS011;11160;51.576;0.194;2022-08-19T06:52:31;8.15;;;7.75;;
21991;SDS011;11160;51.576;0.194;2022-08-19T06:55:02;7.70;;;7.35;;
21991;SDS011;11160;51.576;0.194;2022-08-19T06:57:32;8.68;;;8.23;;
21991;SDS011;11160;51.576;0.194;2022-08-19T07:00:00;7.60;;;7.20;;
21991;SDS011;11160;51.576;0.194;2022-08-19T07:02:27;8.50;;;8.10;;
21991;SDS011;11160;51.576;0.194;2022-08-19T07:04:54;8.63;;;8.18;;
21991;SDS011;11160;51.576;0.194;2022-08-19T07:07:24;8.27;;;7.87;;
21991;SDS011;11160;51.576;0.194;2022-08-19T07:09:52;8.05;;;7.65;;
21991;SDS011;11160;51.576;0.194;2022-08-19T07:12:29;8.52;;;8.02;;
21991;SDS011;11160;51.576;0.194;2022-08-19T07:15:04;8.68;;;8.23;;
21991;SDS011;11160;51.576;0.194;2022-08-19T07:17:32;8.82;;;8.43;;
21991;SDS011;11160;51.576;0.194;2022-08-19T07:20:05;8.90;;;8.40;;
21991;SDS011;11160;51.576;0.194;2022-08-19T07:22:36;9.90;;;9.43;;
21991;SDS011;11160;51.576;0.194;2022-08-19T07:25:05;10.70;;;10.20;;
21991;SDS011;11160;51.576;0.194;2022-08-19T07:27:33;8.23;;;7.72;;
21991;SDS011;11160;51.576;0.194;2022-08-19T07:30:01;10.30;;;9.80;;
21991;SDS011;11160;51.576;0.194;2022-08-19T07:32:29;10.57;;;10.07;;
21991;SDS011;11160;51.576;0.194;2022-08-19T07:34:58;12.00;;;11.40;;
21991;SDS011;11160;51.576;0.194;2022-08-19T07:37:27;11.55;;;10.95;;
21991;SDS011;11160;51.576;0.194;2022-08-19T07:39:59;11.20;;;10.65;;
21991;SDS011;11160;51.576;0.194;2022-08-19T07:42:27;11.02;;;10.50;;
21991;SDS011;11160;51.576;0.194;2022-08-19T07:44:56;12.25;;;11.70;;
21991;SDS011;11160;51.576;0.194;2022-08-19T07:47:25;13.32;;;12.57;;
21991;SDS011;11160;51.576;0.194;2022-08-19T07:50:14;10.97;;;10.43;;
21991;SDS011;11160;51.576;0.194;2022-08-19T07:52:42;15.40;;;14.63;;
21991;SDS011;11160;51.576;0.194;2022-08-19T07:55:15;16.27;;;15.50;;
21991;SDS011;11160;51.576;0.194;2022-08-19T07:58:03;15.50;;;14.73;;
21991;SDS011;11160;51.576;0.194;2022-08-19T08:00:31;19.73;;;18.77;;
21991;SDS011;11160;51.576;0.194;2022-08-19T08:02:58;24.45;;;23.30;;
21991;SDS011;11160;51.576;0.194;2022-08-19T08:05:26;22.85;;;21.67;;
21991;SDS011;11160;51.576;0.194;2022-08-19T08:08:12;24.67;;;23.50;;
21991;SDS011;11160;51.576;0.194;2022-08-19T08:11:19;16.60;;;15.80;;
21991;SDS011;11160;51.576;0.194;2022-08-19T08:16:30;12.02;;;11.43;;
21991;SDS011;11160;51.576;0.194;2022-08-19T08:19:00;16.73;;;15.90;;
21991;SDS011;11160;51.576;0.194;2022-08-19T08:21:27;19.20;;;18.25;;
21991;SDS011;11160;51.576;0.194;2022-08-19T08:23:54;21.10;;;20.13;;
21991;SDS011;11160;51.576;0.194;2022-08-19T08:26:22;19.70;;;18.77;;
21991;SDS011;11160;51.576;0.194;2022-08-19T08:28:51;20.15;;;19.17;;
21991;SDS011;11160;51.576;0.194;2022-08-19T08:31:20;17.45;;;16.63;;
21991;SDS011;11160;51.576;0.194;2022-08-19T08:33:47;19.90;;;18.98;;
21991;SDS011;11160;51.576;0.194;2022-08-19T08:36:14;21.30;;;20.27;;
21991;SDS011;11160;51.576;0.194;2022-08-19T08:38:42;8.77;;;8.30;;
21991;SDS011;11160;51.576;0.194;2022-08-19T08:43:48;6.90;;;6.50;;
21991;SDS011;11160;51.576;0.194;2022-08-19T08:49:20;16.65;;;15.77;;
21991;SDS011;11160;51.576;0.194;2022-08-19T08:52:37;9.43;;;8.82;;
21991;SDS011;11160;51.576;0.194;2022-08-19T08:54:59;19.88;;;18.77;;
21991;SDS011;11160;51.576;0.194;2022-08-19T08:57:48;23.70;;;22.55;;
21991;SDS011;11160;51.576;0.194;2022-08-19T09:00:23;33.13;;;31.42;;
21991;SDS011;11160;51.576;0.194;2022-08-19T09:02:53;21.40;;;20.25;;
21991;SDS011;11160;51.576;0.194;2022-08-19T09:05:22;28.20;;;26.90;;
21991;SDS011;11160;51.576;0.194;2022-08-19T09:10:53;24.80;;;23.58;;
21991;SDS011;11160;51.576;0.194;2022-08-19T09:13:29;21.42;;;20.33;;
21991;SDS011;11160;51.576;0.194;2022-08-19T09:16:07;23.95;;;22.60;;
21991;SDS011;11160;51.576;0.194;2022-08-19T09:18:49;22.17;;;20.75;;
21991;SDS011;11160;51.576;0.194;2022-08-19T09:21:22;26.75;;;25.42;;
21991;SDS011;11160;51.576;0.194;2022-08-19T09:23:58;26.52;;;25.13;;
21991;SDS011;11160;51.576;0.194;2022-08-19T09:26:28;27.13;;;25.73;;
21991;SDS011;11160;51.576;0.194;2022-08-19T09:29:16;28.10;;;26.52;;
21991;SDS011;11160;51.576;0.194;2022-08-19T09:31:43;46.20;;;43.65;;
21991;SDS011;11160;51.576;0.194;2022-08-19T09:34:11;43.45;;;41.13;;
21991;SDS011;11160;51.576;0.194;2022-08-19T09:36:47;22.65;;;21.40;;
21991;SDS011;11160;51.576;0.194;2022-08-19T09:39:20;22.70;;;21.35;;
21991;SDS011;11160;51.576;0.194;2022-08-19T09:41:47;22.33;;;21.02;;
21991;SDS011;11160;51.576;0.194;2022-08-19T09:44:16;27.88;;;26.40;;
21991;SDS011;11160;51.576;0.194;2022-08-19T09:46:44;21.38;;;20.20;;
21991;SDS011;11160;51.576;0.194;2022-08-19T09:49:14;19.50;;;18.40;;
21991;SDS011;11160;51.576;0.194;2022-08-19T09:54:16;22.35;;;21.20;;
21991;SDS011;11160;51.576;0.194;2022-08-19T09:56:49;21.38;;;20.17;;
21991;SDS011;11160;51.576;0.194;2022-08-19T09:59:16;14.90;;;13.88;;
21991;SDS011;11160;51.576;0.194;2022-08-19T10:01:44;19.92;;;18.85;;
21991;SDS011;11160;51.576;0.194;2022-08-19T10:04:11;16.17;;;15.30;;
21991;SDS011;11160;51.576;0.194;2022-08-19T10:06:47;15.20;;;14.40;;
21991;SDS011;11160;51.576;0.194;2022-08-19T10:09:19;15.05;;;14.05;;
21991;SDS011;11160;51.576;0.194;2022-08-19T10:12:00;20.08;;;18.88;;
21991;SDS011;11160;51.576;0.194;2022-08-19T10:14:31;16.83;;;15.95;;
21991;SDS011;11160;51.576;0.194;2022-08-19T10:16:59;24.00;;;22.67;;
21991;SDS011;11160;51.576;0.194;2022-08-19T10:19:45;15.23;;;14.43;;
21991;SDS011;11160;51.576;0.194;2022-08-19T10:22:21;16.30;;;15.40;;
21991;SDS011;11160;51.576;0.194;2022-08-19T10:24:51;16.77;;;15.80;;
21991;SDS011;11160;51.576;0.194;2022-08-19T10:27:18;15.80;;;14.93;;
21991;SDS011;11160;51.576;0.194;2022-08-19T10:29:46;15.52;;;14.65;;
21991;SDS011;11160;51.576;0.194;2022-08-19T10:32:14;20.77;;;19.65;;
21991;SDS011;11160;51.576;0.194;2022-08-19T10:34:41;15.25;;;14.40;;
21991;SDS011;11160;51.576;0.194;2022-08-19T10:37:14;16.88;;;15.88;;
21991;SDS011;11160;51.576;0.194;2022-08-19T10:39:56;16.27;;;15.10;;
21991;SDS011;11160;51.576;0.194;2022-08-19T10:42:23;14.65;;;13.85;;
21991;SDS011;11160;51.576;0.194;2022-08-19T10:44:51;16.17;;;15.27;;
21991;SDS011;11160;51.576;0.194;2022-08-19T10:47:18;15.40;;;14.30;;
21991;SDS011;11160;51.576;0.194;2022-08-19T10:49:52;17.23;;;16.17;;
21991;SDS011;11160;51.576;0.194;2022-08-19T10:52:42;15.63;;;14.63;;
21991;SDS011;11160;51.576;0.194;2022-08-19T10:55:16;18.17;;;17.08;;
21991;SDS011;11160;51.576;0.194;2022-08-19T10:58:09;14.82;;;13.90;;
21991;SDS011;11160;51.576;0.194;2022-08-19T11:00:38;13.73;;;11.95;;
21991;SDS011;11160;51.576;0.194;2022-08-19T11:03:06;20.65;;;19.45;;
21991;SDS011;11160;51.576;0.194;2022-08-19T11:05:35;13.63;;;12.77;;
21991;SDS011;11160;51.576;0.194;2022-08-19T11:08:05;14.13;;;13.18;;
21991;SDS011;11160;51.576;0.194;2022-08-19T11:10:50;17.50;;;16.50;;
21991;SDS011;11160;51.576;0.194;2022-08-19T11:13:25;16.95;;;15.85;;
21991;SDS011;11160;51.576;0.194;2022-08-19T11:16:02;16.95;;;15.90;;
21991;SDS011;11160;51.576;0.194;2022-08-19T11:18:36;17.77;;;16.77;;
21991;SDS011;11160;51.576;0.194;2022-08-19T11:21:05;14.93;;;14.03;;
21991;SDS011;11160;51.576;0.194;2022-08-19T11:23:38;17.98;;;16.85;;
21991;SDS011;11160;51.576;0.194;2022-08-19T11:26:06;16.95;;;15.93;;
21991;SDS011;11160;51.576;0.194;2022-08-19T11:28:34;18.63;;;17.58;;
21991;SDS011;11160;51.576;0.194;2022-08-19T11:31:02;15.43;;;14.43;;
21991;SDS011;11160;51.576;0.194;2022-08-19T11:33:30;16.48;;;15.45;;
21991;SDS011;11160;51.576;0.194;2022-08-19T11:35:58;16.67;;;15.32;;
21991;SDS011;11160;51.576;0.194;2022-08-19T11:38:27;20.35;;;19.13;;
21991;SDS011;11160;51.576;0.194;2022-08-19T11:40:55;16.27;;;15.25;;
21991;SDS011;11160;51.576;0.194;2022-08-19T11:43:23;16.60;;;15.43;;
21991;SDS011;11160;51.576;0.194;2022-08-19T11:45:53;19.08;;;17.83;;
21991;SDS011;11160;51.576;0.194;2022-08-19T11:48:21;27.63;;;25.92;;
21991;SDS011;11160;51.576;0.194;2022-08-19T11:50:50;24.35;;;22.92;;
21991;SDS011;11160;51.576;0.194;2022-08-19T11:53:19;28.25;;;26.48;;
21991;SDS011;11160;51.576;0.194;2022-08-19T11:55:46;28.25;;;26.45;;
21991;SDS011;11160;51.576;0.194;2022-08-19T11:58:14;26.65;;;24.95;;
21991;SDS011;11160;51.576;0.194;2022-08-19T12:00:44;31.75;;;30.00;;
21991;SDS011;11160;51.576;0.194;2022-08-19T12:03:12;27.70;;;26.20;;
21991;SDS011;11160;51.576;0.194;2022-08-19T12:05:40;32.75;;;30.85;;
21991;SDS011;11160;51.576;0.194;2022-08-19T12:08:08;34.22;;;32.25;;
21991;SDS011;11160;51.576;0.194;2022-08-19T12:10:36;28.90;;;26.90;;
21991;SDS011;11160;51.576;0.194;2022-08-19T12:13:03;30.05;;;28.15;;
21991;SDS011;11160;51.576;0.194;2022-08-19T12:15:30;31.50;;;29.42;;
21991;SDS011;11160;51.576;0.194;2022-08-19T12:18:07;32.15;;;30.30;;
21991;SDS011;11160;51.576;0.194;2022-08-19T12:20:35;26.48;;;24.77;;
21991;SDS011;11160;51.576;0.194;2022-08-19T12:23:07;26.23;;;24.73;;
21991;SDS011;11160;51.576;0.194;2022-08-19T12:25:36;32.15;;;30.33;;
21991;SDS011;11160;51.576;0.194;2022-08-19T12:28:04;30.95;;;29.15;;
21991;SDS011;11160;51.576;0.194;2022-08-19T12:30:31;30.10;;;28.30;;
21991;SDS011;11160;51.576;0.194;2022-08-19T12:32:58;44.38;;;41.25;;
21991;SDS011;11160;51.576;0.194;2022-08-19T12:35:25;31.92;;;29.95;;
21991;SDS011;11160;51.576;0.194;2022-08-19T12:37:52;25.13;;;23.52;;
21991;SDS011;11160;51.576;0.194;2022-08-19T12:42:52;34.70;;;32.58;;
21991;SDS011;11160;51.576;0.194;2022-08-19T12:45:19;30.73;;;28.42;;
21991;SDS011;11160;51.576;0.194;2022-08-19T12:47:47;33.58;;;31.23;;
21991;SDS011;11160;51.576;0.194;2022-08-19T12:50:15;31.60;;;29.63;;
21991;SDS011;11160;51.576;0.194;2022-08-19T12:52:42;34.28;;;31.92;;
21991;SDS011;11160;51.576;0.194;2022-08-19T12:55:09;30.70;;;28.63;;
21991;SDS011;11160;51.576;0.194;2022-08-19T12:57:37;23.73;;;22.27;;
21991;SDS011;11160;51.576;0.194;2022-08-19T13:00:09;33.42;;;30.90;;
21991;SDS011;11160;51.576;0.194;2022-08-19T13:02:41;25.25;;;23.80;;
21991;SDS011;11160;51.576;0.194;2022-08-19T13:05:11;31.08;;;29.08;;
21991;SDS011;11160;51.576;0.194;2022-08-19T13:07:42;30.70;;;28.60;;
21991;SDS011;11160;51.576;0.194;2022-08-19T13:10:13;21.13;;;19.50;;
21991;SDS011;11160;51.576;0.194;2022-08-19T13:12:43;25.30;;;23.52;;
21991;SDS011;11160;51.576;0.194;2022-08-19T13:15:11;90.15;;;85.50;;
21991;SDS011;11160;51.576;0.194;2022-08-19T13:17:41;230.98;;;217.32;;
21991;SDS011;11160;51.576;0.194;2022-08-19T13:20:09;393.85;;;364.33;;
21991;SDS011;11160;51.576;0.194;2022-08-19T13:22:37;646.72;;;593.58;;
21991;SDS011;11160;51.576;0.194;2022-08-19T13:25:05;531.88;;;492.65;;
21991;SDS011;11160;51.576;0.194;2022-08-19T13:27:33;565.17;;;521.88;;
21991;SDS011;11160;51.576;0.194;2022-08-19T13:30:00;573.97;;;529.72;;
21991;SDS011;11160;51.576;0.194;2022-08-19T13:32:48;563.85;;;521.05;;
21991;SDS011;11160;51.576;0.194;2022-08-19T13:35:34;396.13;;;370.13;;
21991;SDS011;11160;51.576;0.194;2022-08-19T13:38:02;511.33;;;475.23;;
21991;SDS011;11160;51.576;0.194;2022-08-19T13:40:37;661.95;;;610.10;;
21991;SDS011;11160;51.576;0.194;2022-08-19T13:43:06;773.65;;;709.00;;
21991;SDS011;11160;51.576;0.194;2022-08-19T13:45:50;804.60;;;734.90;;
21991;SDS011;11160;51.576;0.194;2022-08-19T13:48:22;782.92;;;714.92;;
21991;SDS011;11160;51.576;0.194;2022-08-19T13:50:49;764.55;;;698.00;;
21991;SDS011;11160;51.576;0.194;2022-08-19T13:53:17;617.72;;;571.85;;
21991;SDS011;11160;51.576;0.194;2022-08-19T13:55:45;631.83;;;582.65;;
21991;SDS011;11160;51.576;0.194;2022-08-19T13:58:12;483.35;;;449.92;;
21991;SDS011;11160;51.576;0.194;2022-08-19T14:00:41;425.30;;;395.67;;
21991;SDS011;11160;51.576;0.194;2022-08-19T14:03:10;408.60;;;381.67;;
21991;SDS011;11160;51.576;0.194;2022-08-19T14:05:38;281.88;;;265.80;;
21991;SDS011;11160;51.576;0.194;2022-08-19T14:08:05;454.05;;;421.67;;
21991;SDS011;11160;51.576;0.194;2022-08-19T14:10:33;445.05;;;414.63;;
21991;SDS011;11160;51.576;0.194;2022-08-19T14:13:01;483.15;;;449.85;;
21991;SDS011;11160;51.576;0.194;2022-08-19T14:15:29;432.70;;;402.40;;
21991;SDS011;11160;51.576;0.194;2022-08-19T14:17:57;590.85;;;547.58;;
21991;SDS011;11160;51.576;0.194;2022-08-19T14:20:25;646.35;;;598.10;;
21991;SDS011;11160;51.576;0.194;2022-08-19T14:22:52;740.53;;;679.00;;
21991;SDS011;11160;51.576;0.194;2022-08-19T14:25:22;695.78;;;642.55;;
21991;SDS011;11160;51.576;0.194;2022-08-19T14:30:20;679.60;;;628.47;;
21991;SDS011;11160;51.576;0.194;2022-08-19T14:32:51;821.75;;;749.80;;
21991;SDS011;11160;51.576;0.194;2022-08-19T14:35:19;879.88;;;792.50;;
21991;SDS011;11160;51.576;0.194;2022-08-19T14:37:50;874.97;;;786.80;;
21991;SDS011;11160;51.576;0.194;2022-08-19T14:40:23;743.42;;;681.53;;
21991;SDS011;11160;51.576;0.194;2022-08-19T14:42:53;738.90;;;676.05;;
21991;SDS011;11160;51.576;0.194;2022-08-19T14:45:30;685.90;;;631.00;;
21991;SDS011;11160;51.576;0.194;2022-08-19T14:47:59;498.10;;;465.02;;
21991;SDS011;11160;51.576;0.194;2022-08-19T14:50:27;433.13;;;404.60;;
21991;SDS011;11160;51.576;0.194;2022-08-19T14:52:58;393.05;;;367.85;;
21991;SDS011;11160;51.576;0.194;2022-08-19T14:55:34;385.95;;;360.88;;
21991;SDS011;11160;51.576;0.194;2022-08-19T14:58:03;235.65;;;221.90;;
21991;SDS011;11160;51.576;0.194;2022-08-19T15:00:34;252.10;;;235.93;;
21991;SDS011;11160;51.576;0.194;2022-08-19T15:03:02;232.18;;;219.05;;
21991;SDS011;11160;51.576;0.194;2022-08-19T15:05:29;200.93;;;188.02;;
21991;SDS011;11160;51.576;0.194;2022-08-19T15:07:56;162.85;;;152.95;;
21991;SDS011;11160;51.576;0.194;2022-08-19T15:10:23;81.65;;;76.72;;
21991;SDS011;11160;51.576;0.194;2022-08-19T15:12:51;105.60;;;99.55;;
21991;SDS011;11160;51.576;0.194;2022-08-19T15:15:19;105.72;;;99.93;;
21991;SDS011;11160;51.576;0.194;2022-08-19T15:20:43;86.30;;;81.35;;
21991;SDS011;11160;51.576;0.194;2022-08-19T15:23:12;99.05;;;93.20;;